Time;durP1;ratioP1;P1;durP2;ratioP2;P2;SDS_P1;SDS_P2;PMS_P1;PMS_P2;Temp;Humidity;BMP_temperature;BMP_pressure;BME280_temperature;BME280_humidity;BME280_pressure;Samples;Min_cycle;Max_cycle;Signal;HPM_P1;HPM_P2
2021/12/07 00:05:24;;;;;;;19.30;12.30;;;;;;;-3.44;82.55;99167.61;433127;1313;143314;-61
2021/12/07 00:15:33;;;;;;;17.90;12.10;;;;;;;-3.46;82.49;99167.11;430297;1313;142285;-62
2021/12/07 00:25:40;;;;;;;15.40;10.40;;;;;;;-3.39;82.32;99176.61;434002;1312;141901;-61
2021/12/07 00:35:47;;;;;;;21.40;13.80;;;;;;;-3.34;82.40;99181.86;430532;1313;143464;-60
2021/12/07 00:45:57;;;;;;;21.10;14.00;;;;;;;-3.46;82.03;99192.27;434722;1308;142218;-61
2021/12/07 00:56:05;;;;;;;16.80;12.90;;;;;;;-3.63;81.93;99204.30;433295;1313;142868;-62
2021/12/07 01:06:22;;;;;;;16.80;11.40;;;;;;;-3.73;81.87;99206.47;427265;1312;142070;-59
2021/12/07 01:26:52;;;;;;;14.20;9.50;;;;;;;-4.02;81.77;99226.81;433426;1312;142916;-61
2021/12/07 01:37:14;;;;;;;15.10;10.60;;;;;;;-4.13;81.75;99228.62;434195;1313;141967;-61
2021/12/07 01:47:33;;;;;;;16.30;10.70;;;;;;;-4.23;81.62;99239.14;434610;1312;142730;-61
2021/12/07 02:08:04;;;;;;;15.70;10.60;;;;;;;-4.34;81.56;99220.27;428644;1312;142166;-60
2021/12/07 02:18:11;;;;;;;18.40;11.40;;;;;;;-4.41;81.73;99209.39;432689;1312;142951;-61
2021/12/07 02:28:18;;;;;;;13.90;10.40;;;;;;;-4.37;81.93;99208.50;433907;1312;146275;-62
2021/12/07 02:38:24;;;;;;;17.50;12.00;;;;;;;-4.38;81.71;99215.86;426830;1313;143070;-61
2021/12/07 02:48:31;;;;;;;15.20;9.50;;;;;;;-4.46;81.76;99196.46;430038;1312;142703;-59
2021/12/07 02:58:41;;;;;;;16.00;12.10;;;;;;;-4.47;81.61;99208.60;434553;1313;141218;-60
2021/12/07 03:09:16;;;;;;;15.40;11.40;;;;;;;-4.48;81.70;99206.39;421750;1308;142561;-60
2021/12/07 03:29:47;;;;;;;12.10;8.80;;;;;;;-4.50;81.98;99184.88;434705;1312;142319;-60
2021/12/07 03:39:52;;;;;;;15.70;10.80;;;;;;;-4.49;81.89;99189.65;434411;1313;245773;-61
2021/12/07 03:49:58;;;;;;;20.50;13.70;;;;;;;-4.46;81.91;99185.67;434289;1313;142149;-61
2021/12/07 04:00:08;;;;;;;17.10;11.50;;;;;;;-4.46;81.61;99182.44;429409;1313;142739;-61
2021/12/07 04:10:17;;;;;;;16.20;10.10;;;;;;;-4.49;81.77;99195.96;434190;1313;141756;-60
2021/12/07 04:20:23;;;;;;;22.60;15.20;;;;;;;-4.55;81.67;99208.48;433460;1312;142229;-61
2021/12/07 04:30:32;;;;;;;18.00;12.10;;;;;;;-4.55;81.85;99223.70;432440;1313;143634;-61
2021/12/07 04:40:39;;;;;;;21.70;14.80;;;;;;;-4.51;81.91;99219.90;433811;1312;142769;-61
2021/12/07 05:01:10;;;;;;;27.50;16.90;;;;;;;-4.49;82.04;99222.45;434297;1313;128426;-61
2021/12/07 05:42:30;;;;;;;26.40;15.60;;;;;;;-4.40;81.91;99233.48;424191;1313;143183;-61
2021/12/07 05:52:37;;;;;;;26.00;17.10;;;;;;;-4.40;81.96;99236.89;421209;1312;141927;-61
2021/12/07 06:02:43;;;;;;;28.60;18.40;;;;;;;-4.38;82.05;99249.19;432658;1312;143182;-62
2021/12/07 06:12:50;;;;;;;33.00;17.30;;;;;;;-4.35;82.20;99242.15;433985;1315;141906;-61
2021/12/07 06:22:56;;;;;;;28.40;18.10;;;;;;;-4.38;82.08;99232.95;433242;1315;143702;-61
2021/12/07 06:33:02;;;;;;;30.70;17.70;;;;;;;-4.32;82.25;99240.92;432934;1315;145949;-60
2021/12/07 06:43:08;;;;;;;31.40;17.30;;;;;;;-4.30;82.21;99241.27;434399;1313;142915;-61
2021/12/07 06:53:15;;;;;;;26.90;16.90;;;;;;;-4.30;82.09;99252.88;433301;1312;142531;-61
2021/12/07 07:03:21;;;;;;;28.00;17.50;;;;;;;-4.29;81.86;99255.77;432189;1315;145608;-61
2021/12/07 07:13:27;;;;;;;25.80;17.30;;;;;;;-4.30;81.73;99265.86;434350;1314;142037;-62
2021/12/07 07:23:38;;;;;;;28.30;16.40;;;;;;;-4.34;81.56;99277.52;432949;1314;142952;-63
2021/12/07 07:33:43;;;;;;;31.60;17.70;;;;;;;-4.41;81.47;99279.63;433998;1310;142535;-61
2021/12/07 07:43:50;;;;;;;30.40;18.20;;;;;;;-4.24;81.69;99285.82;432579;1310;152661;-62
2021/12/07 07:53:58;;;;;;;23.60;16.60;;;;;;;-3.93;81.26;99298.37;423861;1314;143238;-60
2021/12/07 08:04:05;;;;;;;29.80;17.90;;;;;;;-3.72;80.78;99302.78;434720;1312;143556;-61
2021/12/07 08:14:11;;;;;;;22.70;14.40;;;;;;;-3.57;80.63;99309.30;434743;1312;147165;-63
2021/12/07 08:24:18;;;;;;;27.90;15.30;;;;;;;-3.38;80.26;99315.59;431721;1315;144570;-64
2021/12/07 08:34:24;;;;;;;26.20;16.60;;;;;;;-3.14;79.89;99329.51;434458;1309;143182;-74
2021/12/07 08:44:31;;;;;;;23.60;15.10;;;;;;;-2.95;79.61;99335.80;428455;1314;141284;-67
2021/12/07 08:59:38;;;;;;;32.30;19.10;;;;;;;-2.76;79.29;99346.52;433636;1314;142431;-72
2021/12/07 09:05:03;;;;;;;28.50;17.40;;;;;;;-2.61;79.14;99350.08;434037;1311;143050;-64
2021/12/07 09:15:11;;;;;;;31.10;19.50;;;;;;;-2.39;78.84;99343.42;433845;1312;144983;-65
2021/12/07 09:25:19;;;;;;;26.80;16.60;;;;;;;-2.17;78.31;99337.95;434633;1312;142189;-59
2021/12/07 09:35:25;;;;;;;20.00;14.20;;;;;;;-2.11;77.93;99341.98;432784;1314;144499;-61
2021/12/07 09:45:32;;;;;;;22.60;16.40;;;;;;;-2.15;77.77;99345.63;432477;1312;141831;-60
2021/12/07 09:55:39;;;;;;;26.00;17.60;;;;;;;-2.21;77.54;99337.84;433816;1315;143234;-67
2021/12/07 10:05:46;;;;;;;24.80;15.60;;;;;;;-2.35;77.27;99338.23;434608;1313;143533;-68
2021/12/07 10:15:54;;;;;;;23.40;16.50;;;;;;;-2.40;77.15;99329.89;433329;1315;143310;-63
2021/12/07 10:26:05;;;;;;;23.90;16.20;;;;;;;-2.38;77.23;99331.41;433818;1315;142467;-63
2021/12/07 10:36:14;;;;;;;27.20;16.20;;;;;;;-2.26;77.44;99332.95;432155;1309;142457;-60
2021/12/07 10:46:48;;;;;;;25.30;17.80;;;;;;;-2.23;76.97;99333.23;428516;1313;141931;-64
2021/12/07 10:56:55;;;;;;;25.50;16.70;;;;;;;-2.32;77.03;99332.70;433328;1314;142890;-63
2021/12/07 11:07:12;;;;;;;;;;;;;;;-2.25;76.98;99334.98;432706;1313;143182;-63
2021/12/07 11:17:21;;;;;;;20.50;13.20;;;;;;;-2.22;76.83;99331.85;431709;1315;128774;-61
2021/12/07 11:37:53;;;;;;;24.80;15.20;;;;;;;-2.14;76.76;99326.92;434011;1311;205501;-62
2021/12/07 11:48:01;;;;;;;20.10;13.70;;;;;;;-2.04;76.35;99322.64;433648;1313;142586;-62
2021/12/07 11:58:10;;;;;;;23.90;15.80;;;;;;;-1.95;76.29;99324.05;433263;1313;142687;-61
2021/12/07 12:08:19;;;;;;;23.80;16.70;;;;;;;-1.97;76.29;99329.73;422637;1312;143155;-68
2021/12/07 12:18:37;;;;;;;26.30;16.00;;;;;;;-2.12;76.35;99328.09;432121;1310;143490;-60
2021/12/07 12:28:47;;;;;;;27.60;16.70;;;;;;;-2.22;76.33;99331.85;433301;1313;142566;-61
2021/12/07 12:39:01;;;;;;;24.70;16.00;;;;;;;-2.35;76.19;99328.45;430619;1313;142825;-67
2021/12/07 12:49:12;;;;;;;25.80;16.60;;;;;;;-2.65;76.50;99331.81;434300;1313;142259;-63
2021/12/07 12:59:22;;;;;;;27.60;17.20;;;;;;;-2.86;76.69;99337.73;431956;1312;141486;-73
2021/12/07 13:09:42;;;;;;;22.10;14.30;;;;;;;-2.95;77.11;99335.45;421876;1312;142325;-68
2021/12/07 13:20:19;;;;;;;24.90;15.50;;;;;;;-3.02;77.00;99339.65;433619;1312;141395;-65
2021/12/07 13:30:25;;;;;;;26.80;18.40;;;;;;;-3.16;77.22;99351.98;431524;1313;141741;-60
2021/12/07 13:40:31;;;;;;;27.20;16.00;;;;;;;-3.25;77.49;99359.44;432319;1313;142115;-67
2021/12/07 13:50:37;;;;;;;27.80;18.00;;;;;;;-3.31;77.55;99365.66;430625;1313;141473;-64
2021/12/07 14:00:43;;;;;;;32.80;19.60;;;;;;;-3.40;77.44;99387.52;433072;1313;142714;-64
2021/12/07 14:10:52;;;;;;;28.70;17.10;;;;;;;-3.53;77.69;99394.13;433979;1313;143075;-63
2021/12/07 14:21:01;;;;;;;29.80;19.10;;;;;;;-3.60;77.95;99399.34;420258;1313;142313;-62
2021/12/07 14:31:12;;;;;;;42.00;23.90;;;;;;;-3.62;78.05;99400.39;427520;1313;142213;-62
2021/12/07 14:41:20;;;;;;;34.60;20.80;;;;;;;-3.65;78.15;99401.78;433897;1313;141818;-67
2021/12/07 14:51:30;;;;;;;32.10;22.10;;;;;;;-3.69;78.27;99399.75;427191;1313;145895;-59
2021/12/07 15:01:39;;;;;;;34.90;20.50;;;;;;;-3.72;78.26;99399.44;434004;1313;142695;-63
2021/12/07 15:11:48;;;;;;;30.50;19.10;;;;;;;-3.71;78.27;99411.23;432767;1310;142469;-61
2021/12/07 15:21:56;;;;;;;26.60;17.60;;;;;;;-3.70;78.13;99418.07;431785;1310;152288;-62
2021/12/07 15:32:05;;;;;;;33.20;18.50;;;;;;;-3.65;78.11;99418.71;418467;1313;143054;-57
2021/12/07 15:42:13;;;;;;;27.70;17.50;;;;;;;-3.71;77.96;99415.00;424961;1313;143959;-58
2021/12/07 15:52:22;;;;;;;32.80;21.60;;;;;;;-3.68;78.11;99412.75;434011;1313;147272;-60
2021/12/07 16:02:49;;;;;;;33.40;19.00;;;;;;;-3.66;78.15;99413.07;421358;1313;141795;-60
2021/12/07 16:13:17;;;;;;;28.20;17.90;;;;;;;-3.65;78.01;99421.29;422374;1313;141276;-59
2021/12/07 16:23:23;;;;;;;24.20;16.70;;;;;;;-3.69;78.05;99424.56;433202;1313;143034;-59
2021/12/07 16:33:29;;;;;;;29.20;19.10;;;;;;;-3.72;78.01;99426.98;432524;1313;142577;-59
2021/12/07 16:43:35;;;;;;;24.00;15.10;;;;;;;-3.71;77.96;99431.94;426148;1311;142271;-59
2021/12/07 16:53:41;;;;;;;31.00;19.60;;;;;;;-3.70;78.03;99441.34;423400;1313;141794;-59
2021/12/07 17:03:49;;;;;;;24.50;17.20;;;;;;;-3.70;78.09;99449.73;432017;1313;142550;-59
2021/12/07 17:13:55;;;;;;;30.20;20.30;;;;;;;-3.68;78.06;99444.56;422047;1313;154070;-59
2021/12/07 17:24:01;;;;;;;26.20;16.80;;;;;;;-3.72;77.92;99438.09;417284;1313;142428;-57
2021/12/07 17:34:08;;;;;;;36.00;22.90;;;;;;;-3.70;77.85;99431.92;419653;1310;141375;-59
2021/12/07 17:44:14;;;;;;;28.10;18.30;;;;;;;-3.68;77.55;99440.30;432501;1313;142830;-58
2021/12/07 17:54:20;;;;;;;27.50;16.60;;;;;;;-3.70;77.49;99437.73;433286;1312;143590;-60
2021/12/07 18:04:29;;;;;;;24.90;18.20;;;;;;;-3.69;77.35;99437.89;434025;1313;141608;-60
2021/12/07 18:14:34;;;;;;;22.30;16.00;;;;;;;-3.72;77.10;99435.54;434029;1313;142796;-60
2021/12/07 18:24:40;;;;;;;26.30;18.20;;;;;;;-3.70;77.18;99437.57;423868;1313;142309;-60
2021/12/07 18:35:03;;;;;;;33.00;21.00;;;;;;;-3.79;77.56;99434.23;433590;1311;144079;-60
2021/12/07 18:45:12;;;;;;;29.60;18.30;;;;;;;-3.80;77.82;99434.23;432119;1314;141329;-61
2021/12/07 18:55:18;;;;;;;29.80;17.60;;;;;;;-3.79;77.74;99438.84;430109;1314;142019;-61
2021/12/07 19:05:25;;;;;;;28.60;17.90;;;;;;;-3.81;77.52;99448.95;432834;1313;143517;-60
2021/12/07 19:15:29;;;;;;;;;;;;;;;-3.88;77.45;99447.64;419628;1314;142156;-61
2021/12/07 19:25:36;;;;;;;19.30;12.40;;;;;;;-3.85;77.27;99452.41;429050;1313;128574;-61
2021/12/07 19:35:46;;;;;;;25.30;17.20;;;;;;;-3.83;77.29;99453.41;422477;1313;142203;-62
2021/12/07 19:45:54;;;;;;;23.50;16.00;;;;;;;-3.80;77.29;99455.45;421109;1305;273443;-61
2021/12/07 19:56:06;;;;;;;17.40;12.10;;;;;;;-3.81;77.20;99443.30;433757;1313;144077;-60
2021/12/07 20:06:12;;;;;;;21.70;13.40;;;;;;;-3.82;76.61;99445.36;433057;1313;143349;-60
2021/12/07 20:16:19;;;;;;;14.60;8.20;;;;;;;-3.94;76.23;99440.83;424557;1313;143485;-60
2021/12/07 20:26:28;;;;;;;13.90;9.10;;;;;;;-4.05;76.00;99447.05;431857;1313;142640;-61
2021/12/07 20:36:49;;;;;;;10.80;7.60;;;;;;;-4.02;75.86;99425.67;434551;1312;141599;-60
2021/12/07 20:46:55;;;;;;;17.10;10.10;;;;;;;-4.06;75.54;99418.52;430438;1313;192102;-60
2021/12/07 20:57:02;;;;;;;12.40;9.10;;;;;;;-4.06;75.66;99423.48;423176;1313;142968;-60
2021/12/07 21:07:06;;;;;;;;;;;;;;;-4.08;75.53;99429.82;423658;1314;141574;-59
2021/12/07 21:17:13;;;;;;;11.50;7.90;;;;;;;-4.14;75.47;99426.25;418127;1312;128048;-60
2021/12/07 21:27:19;;;;;;;14.90;9.50;;;;;;;-4.22;75.58;99426.65;418032;1312;142546;-61
2021/12/07 21:37:26;;;;;;;11.20;8.70;;;;;;;-4.21;75.56;99423.91;425299;1309;141382;-59
2021/12/07 21:47:33;;;;;;;17.40;11.50;;;;;;;-4.21;75.38;99421.86;434531;1310;142398;-59
2021/12/07 21:57:40;;;;;;;19.90;13.00;;;;;;;-4.15;75.63;99422.85;427852;1312;142128;-60
2021/12/07 22:07:46;;;;;;;20.30;11.80;;;;;;;-4.17;75.82;99424.06;433090;1312;141897;-57
2021/12/07 22:17:53;;;;;;;22.90;15.50;;;;;;;-4.18;75.90;99416.04;432396;1312;142159;-57
2021/12/07 22:27:59;;;;;;;18.80;13.00;;;;;;;-4.12;76.26;99398.22;433205;1313;142064;-58
2021/12/07 22:38:05;;;;;;;19.90;12.50;;;;;;;-4.13;76.34;99376.00;434480;1313;142683;-57
2021/12/07 22:48:12;;;;;;;16.40;11.50;;;;;;;-4.13;76.37;99367.61;433748;1312;142372;-58
2021/12/07 22:58:18;;;;;;;18.10;10.70;;;;;;;-4.26;76.24;99361.04;432498;1310;142901;-58
2021/12/07 23:08:26;;;;;;;10.90;6.90;;;;;;;-4.32;76.16;99360.90;431928;1312;142135;-58
2021/12/07 23:18:35;;;;;;;14.00;7.70;;;;;;;-4.44;75.97;99366.80;418501;1313;142170;-58
2021/12/07 23:28:42;;;;;;;10.70;7.90;;;;;;;-4.55;75.89;99369.59;433451;1312;142419;-59
2021/12/07 23:38:51;;;;;;;10.10;6.70;;;;;;;-4.67;75.62;99356.02;433708;1313;142826;-59
2021/12/07 23:48:57;;;;;;;9.30;7.30;;;;;;;-4.69;75.60;99361.48;434036;1313;211545;-58
2021/12/07 23:59:02;;;;;;;;;;;;;;;-4.81;75.75;99355.39;422032;1313;141716;-59
